Time;durP1;ratioP1;P1;durP2;ratioP2;P2;SDS_P1;SDS_P2;PMS_P1;PMS_P2;Temp;Humidity;BMP_temperature;BMP_pressure;BME280_temperature;BME280_humidity;BME280_pressure;Samples;Min_cycle;Max_cycle;Signal;HPM_P1;HPM_P2
2022/11/26 00:00:20;;;;;;;11.50;4.50;;;4.80;99.90;;;;;;5061455;28;20040;-44
2022/11/26 00:02:46;;;;;;;10.82;4.57;;;4.80;99.90;;;;;;5066579;28;20047;-40
2022/11/26 00:05:14;;;;;;;11.95;4.75;;;4.80;99.90;;;;;;5061409;28;20037;-40
2022/11/26 00:07:43;;;;;;;14.05;4.38;;;4.70;99.90;;;;;;5065345;28;20041;-39
2022/11/26 00:10:26;;;;;;;13.88;4.60;;;4.70;99.90;;;;;;5054003;28;20041;-40
2022/11/26 00:12:53;;;;;;;16.13;5.15;;;4.70;99.90;;;;;;5064957;28;20052;-41
2022/11/26 00:15:24;;;;;;;12.20;4.90;;;4.70;99.90;;;;;;5067464;28;20036;-41
2022/11/26 00:17:51;;;;;;;15.85;5.60;;;4.60;99.90;;;;;;5063484;28;20162;-40
2022/11/26 00:20:19;;;;;;;11.98;5.55;;;4.60;99.90;;;;;;5064747;28;20044;-40
2022/11/26 00:22:50;;;;;;;10.38;4.10;;;4.60;99.90;;;;;;5057641;28;20680;-40
2022/11/26 00:25:21;;;;;;;11.90;5.07;;;4.60;99.90;;;;;;5066842;28;20036;-40
2022/11/26 00:27:48;;;;;;;10.00;3.75;;;4.60;99.90;;;;;;5065707;28;20155;-39
2022/11/26 00:30:20;;;;;;;16.23;5.10;;;4.50;99.90;;;;;;5064304;28;20048;-40
2022/11/26 00:32:46;;;;;;;11.23;4.00;;;4.50;99.90;;;;;;5059366;28;20045;-39
2022/11/26 00:35:12;;;;;;;14.10;4.75;;;4.50;99.90;;;;;;5060890;28;20048;-39
2022/11/26 00:37:43;;;;;;;17.88;4.90;;;4.50;99.90;;;;;;5062420;28;20053;-40
2022/11/26 00:40:17;;;;;;;13.52;4.38;;;4.50;99.90;;;;;;5058856;28;20048;-40
2022/11/26 00:42:43;;;;;;;11.32;4.40;;;4.50;99.90;;;;;;5055341;28;20391;-39
2022/11/26 00:45:21;;;;;;;12.40;4.20;;;4.50;99.90;;;;;;5066388;28;20120;-40
2022/11/26 00:47:47;;;;;;;11.38;4.10;;;4.50;99.90;;;;;;5052153;28;20483;-42
2022/11/26 00:50:15;;;;;;;14.40;4.68;;;4.50;99.90;;;;;;5059099;28;20086;-39
2022/11/26 00:52:42;;;;;;;8.90;3.60;;;4.40;99.90;;;;;;5051740;28;20047;-49
2022/11/26 00:55:26;;;;;;;13.75;4.30;;;4.40;99.90;;;;;;5061097;28;20163;-39
2022/11/26 00:57:52;;;;;;;17.10;4.70;;;4.40;99.90;;;;;;5049712;28;20044;-40
2022/11/26 01:00:21;;;;;;;11.57;4.30;;;4.30;99.90;;;;;;5058827;28;20064;-41
2022/11/26 01:02:47;;;;;;;11.45;4.75;;;4.30;99.90;;;;;;5052541;28;20033;-39
2022/11/26 01:05:13;;;;;;;12.65;4.85;;;4.30;99.90;;;;;;5063074;28;20040;-40
2022/11/26 01:07:40;;;;;;;13.70;5.07;;;4.30;99.90;;;;;;5059782;28;20045;-39
2022/11/26 01:10:13;;;;;;;13.88;4.55;;;4.30;99.90;;;;;;5059378;28;20075;-40
2022/11/26 01:12:39;;;;;;;9.70;3.97;;;4.30;99.90;;;;;;5067958;28;20514;-39
2022/11/26 01:15:05;;;;;;;10.77;3.95;;;4.30;99.90;;;;;;5064147;28;20059;-39
2022/11/26 01:17:31;;;;;;;13.48;4.47;;;4.30;99.90;;;;;;5066130;28;20052;-40
2022/11/26 01:19:56;;;;;;;10.68;4.07;;;4.30;99.90;;;;;;5066565;28;20040;-40
2022/11/26 01:22:23;;;;;;;9.60;4.60;;;4.30;99.90;;;;;;5063454;28;20387;-40
2022/11/26 01:24:49;;;;;;;15.93;4.70;;;4.30;99.90;;;;;;5062364;28;20040;-40
2022/11/26 01:27:19;;;;;;;13.00;4.15;;;4.30;99.90;;;;;;5059500;28;20040;-40
2022/11/26 01:29:45;;;;;;;13.18;4.93;;;4.30;99.90;;;;;;5060071;28;20044;-41
2022/11/26 01:32:11;;;;;;;8.23;3.58;;;4.30;99.90;;;;;;5060833;28;20739;-40
2022/11/26 01:34:37;;;;;;;16.10;4.57;;;4.30;99.90;;;;;;5064014;28;20128;-40
2022/11/26 01:37:09;;;;;;;14.40;4.63;;;4.30;99.90;;;;;;5061863;28;20463;-43
2022/11/26 01:39:34;;;;;;;14.52;4.53;;;4.40;99.90;;;;;;5059661;28;20053;-39
2022/11/26 01:42:25;;;;;;;16.48;4.32;;;4.30;99.90;;;;;;5059031;28;20114;-40
2022/11/26 01:44:51;;;;;;;13.63;4.20;;;4.30;99.90;;;;;;5063709;28;20044;-47
2022/11/26 01:47:25;;;;;;;13.25;4.22;;;4.30;99.90;;;;;;5060616;28;20517;-39
2022/11/26 01:50:35;;;;;;;15.88;4.20;;;4.30;99.90;;;;;;5062559;28;20036;-40
2022/11/26 01:53:18;;;;;;;15.90;4.68;;;4.30;99.90;;;;;;5057072;28;20484;-39
2022/11/26 01:56:11;;;;;;;14.30;4.55;;;4.30;99.90;;;;;;5057294;28;20463;-40
2022/11/26 01:58:41;;;;;;;11.10;4.75;;;4.30;99.90;;;;;;5061352;28;20173;-40
2022/11/26 02:01:08;;;;;;;16.50;3.85;;;4.30;99.90;;;;;;5061927;28;20493;-39
2022/11/26 02:03:43;;;;;;;11.15;3.75;;;4.30;99.90;;;;;;5064893;28;20049;-40
2022/11/26 02:06:16;;;;;;;13.63;4.65;;;4.30;99.90;;;;;;5055902;28;20055;-41
2022/11/26 02:08:42;;;;;;;11.95;3.70;;;4.30;99.90;;;;;;5061632;28;20044;-40
2022/11/26 02:11:15;;;;;;;18.00;4.38;;;4.30;99.90;;;;;;5060069;28;20032;-40
2022/11/26 02:13:41;;;;;;;14.20;4.82;;;4.30;99.90;;;;;;5062478;28;20076;-40
2022/11/26 02:16:41;;;;;;;14.27;4.40;;;4.30;99.90;;;;;;5061090;28;20518;-41
2022/11/26 02:19:27;;;;;;;9.57;4.32;;;4.30;99.90;;;;;;5049490;28;20528;-39
2022/11/26 02:22:23;;;;;;;13.52;3.85;;;4.30;99.90;;;;;;5058276;28;20055;-39
2022/11/26 02:25:03;;;;;;;9.45;4.20;;;4.30;99.90;;;;;;5045905;28;20060;-41
2022/11/26 02:27:55;;;;;;;11.43;3.95;;;4.30;99.90;;;;;;5065383;28;20033;-40
2022/11/26 02:30:20;;;;;;;14.73;4.28;;;4.40;99.90;;;;;;5052865;28;20501;-41
2022/11/26 02:32:53;;;;;;;12.23;4.53;;;4.40;99.90;;;;;;5057937;28;20086;-39
2022/11/26 02:35:27;;;;;;;14.77;4.03;;;4.30;99.90;;;;;;5057816;28;20114;-40
2022/11/26 02:38:04;;;;;;;12.48;4.25;;;4.30;99.90;;;;;;5063525;28;20045;-40
2022/11/26 02:40:30;;;;;;;14.02;4.55;;;4.30;99.90;;;;;;5053135;28;21317;-40
2022/11/26 02:42:56;;;;;;;19.05;4.60;;;4.30;99.90;;;;;;5067615;28;20028;-40
2022/11/26 02:45:26;;;;;;;15.10;4.90;;;4.30;99.90;;;;;;5067150;28;20037;-39
2022/11/26 02:47:55;;;;;;;14.48;4.40;;;4.30;99.90;;;;;;5063219;28;20426;-39
2022/11/26 02:50:34;;;;;;;11.45;3.53;;;4.30;99.90;;;;;;5064459;28;20028;-39
2022/11/26 02:53:01;;;;;;;15.73;4.68;;;4.30;99.90;;;;;;5067929;28;20165;-41
2022/11/26 02:55:32;;;;;;;8.95;3.75;;;4.30;99.90;;;;;;5060566;28;20071;-39
2022/11/26 02:57:58;;;;;;;13.52;4.47;;;4.30;99.90;;;;;;5060374;28;20090;-38
2022/11/26 03:00:24;;;;;;;11.13;4.13;;;4.30;99.90;;;;;;5067559;28;20106;-39
2022/11/26 03:03:07;;;;;;;10.77;3.95;;;4.20;99.90;;;;;;5061930;28;20040;-39
2022/11/26 03:05:36;;;;;;;12.70;3.72;;;4.20;99.90;;;;;;5061493;28;20127;-45
2022/11/26 03:08:03;;;;;;;9.73;3.97;;;4.20;99.90;;;;;;5063209;28;20047;-40
2022/11/26 03:10:31;;;;;;;14.70;4.00;;;4.10;99.90;;;;;;5068636;28;20029;-40
2022/11/26 03:12:56;;;;;;;9.35;3.13;;;4.10;99.90;;;;;;5064315;28;20048;-39
2022/11/26 03:15:22;;;;;;;12.52;3.78;;;4.00;99.90;;;;;;5064656;28;20033;-39
2022/11/26 03:17:48;;;;;;;10.38;3.35;;;4.00;99.90;;;;;;5061591;28;20033;-39
2022/11/26 03:20:14;;;;;;;9.77;3.42;;;4.00;99.90;;;;;;5069553;28;20045;-40
2022/11/26 03:22:40;;;;;;;10.45;2.70;;;4.00;99.90;;;;;;5064204;28;20097;-40
2022/11/26 03:25:06;;;;;;;8.63;3.03;;;4.00;99.90;;;;;;5060211;28;20554;-39
2022/11/26 03:27:32;;;;;;;10.27;3.30;;;3.90;99.90;;;;;;5064038;28;20480;-39
2022/11/26 03:29:58;;;;;;;11.38;3.33;;;3.90;99.90;;;;;;5064351;28;20078;-39
2022/11/26 03:32:24;;;;;;;11.57;3.03;;;3.90;99.90;;;;;;5063397;28;20076;-41
2022/11/26 03:34:50;;;;;;;8.35;3.00;;;3.90;99.90;;;;;;5057257;28;20406;-40
2022/11/26 03:37:16;;;;;;;9.40;3.45;;;3.90;99.90;;;;;;5062444;28;20476;-39
2022/11/26 03:39:42;;;;;;;10.05;3.65;;;3.90;99.90;;;;;;5060280;28;20163;-39
2022/11/26 03:42:07;;;;;;;10.07;3.92;;;3.90;99.90;;;;;;5059066;28;20131;-39
2022/11/26 03:44:33;;;;;;;7.53;3.20;;;3.90;99.90;;;;;;5057639;28;20110;-40
2022/11/26 03:46:59;;;;;;;8.48;4.07;;;3.90;99.90;;;;;;5052729;28;20115;-39
2022/11/26 03:49:25;;;;;;;9.38;3.72;;;3.90;99.90;;;;;;5060353;28;20040;-39
2022/11/26 03:51:50;;;;;;;13.15;4.45;;;3.90;99.90;;;;;;5065311;28;20040;-42
2022/11/26 03:54:16;;;;;;;12.75;4.38;;;3.90;99.90;;;;;;5065079;28;20044;-39
2022/11/26 03:56:42;;;;;;;11.45;3.53;;;3.90;99.90;;;;;;5064613;28;20049;-40
2022/11/26 03:59:08;;;;;;;9.40;3.58;;;3.90;99.90;;;;;;5063362;28;20482;-40
2022/11/26 04:01:34;;;;;;;7.43;3.53;;;3.90;99.90;;;;;;5064465;28;20036;-40
2022/11/26 04:03:59;;;;;;;6.82;3.40;;;3.90;99.90;;;;;;5053924;28;20477;-40
2022/11/26 04:06:25;;;;;;;12.15;4.30;;;3.90;99.90;;;;;;5059965;28;20119;-39
2022/11/26 04:08:51;;;;;;;8.75;3.80;;;3.90;99.90;;;;;;5054658;28;20033;-38
2022/11/26 04:11:16;;;;;;;9.85;3.75;;;3.90;99.90;;;;;;5063150;28;20132;-44
2022/11/26 04:13:42;;;;;;;12.77;4.47;;;3.90;99.90;;;;;;5067032;28;20036;-39
2022/11/26 04:16:08;;;;;;;12.10;4.30;;;3.90;99.90;;;;;;5058381;28;20045;-39
2022/11/26 04:18:34;;;;;;;16.55;5.15;;;3.90;99.90;;;;;;5066508;28;20045;-39
2022/11/26 04:21:00;;;;;;;13.45;4.38;;;3.90;99.90;;;;;;5061416;28;20048;-40
2022/11/26 04:23:25;;;;;;;14.98;4.40;;;3.90;99.90;;;;;;5063487;28;20041;-39
2022/11/26 04:25:51;;;;;;;10.95;3.78;;;3.90;99.90;;;;;;5069196;28;20496;-40
2022/11/26 04:28:17;;;;;;;18.08;4.78;;;3.90;99.90;;;;;;5060455;28;20089;-40
2022/11/26 04:30:42;;;;;;;21.00;6.00;;;4.00;99.90;;;;;;5055754;28;20499;-40
2022/11/26 04:33:08;;;;;;;13.98;4.93;;;3.90;99.90;;;;;;5067247;28;20132;-40
2022/11/26 04:35:34;;;;;;;12.18;4.68;;;4.00;99.90;;;;;;5054021;28;20422;-39
2022/11/26 04:38:00;;;;;;;13.23;5.75;;;4.00;99.90;;;;;;5067857;28;20040;-39
2022/11/26 04:40:26;;;;;;;8.40;3.78;;;4.00;99.90;;;;;;5058643;28;20040;-40
2022/11/26 04:42:52;;;;;;;12.43;4.93;;;4.00;99.90;;;;;;5058939;28;20090;-39
2022/11/26 04:45:17;;;;;;;9.75;4.13;;;4.00;99.90;;;;;;5075031;28;20063;-40
2022/11/26 04:47:43;;;;;;;12.20;4.38;;;4.00;99.90;;;;;;5057676;28;20128;-39
2022/11/26 04:50:09;;;;;;;11.18;4.18;;;4.00;99.90;;;;;;5052019;28;20128;-39
2022/11/26 04:52:35;;;;;;;13.02;4.72;;;4.00;99.90;;;;;;5057655;28;20517;-41
2022/11/26 04:55:00;;;;;;;11.13;4.72;;;4.00;99.90;;;;;;5067129;28;20040;-40
2022/11/26 04:57:26;;;;;;;15.32;4.78;;;4.00;99.90;;;;;;5064966;28;20047;-39
2022/11/26 04:59:52;;;;;;;11.85;4.30;;;4.00;99.90;;;;;;5058942;28;20040;-49
2022/11/26 05:02:17;;;;;;;11.73;4.55;;;4.00;99.90;;;;;;5057060;28;20037;-40
2022/11/26 05:04:43;;;;;;;16.58;5.63;;;4.00;99.90;;;;;;5067462;28;20084;-40
2022/11/26 05:07:09;;;;;;;15.52;4.10;;;4.00;99.90;;;;;;5063111;28;20441;-39
2022/11/26 05:09:34;;;;;;;13.20;4.78;;;4.00;99.90;;;;;;5060218;28;20041;-39
2022/11/26 05:12:00;;;;;;;10.30;4.07;;;4.00;99.90;;;;;;5057666;28;20032;-40
2022/11/26 05:14:26;;;;;;;15.82;4.90;;;4.00;99.90;;;;;;5057317;28;20050;-40
2022/11/26 05:16:52;;;;;;;16.27;4.70;;;4.00;99.90;;;;;;5056075;28;20036;-38
2022/11/26 05:19:17;;;;;;;10.27;4.88;;;4.00;99.90;;;;;;5066277;28;20137;-39
2022/11/26 05:21:43;;;;;;;14.05;4.40;;;4.00;99.90;;;;;;5057430;28;20036;-39
2022/11/26 05:24:09;;;;;;;13.13;4.97;;;4.00;99.90;;;;;;5060077;28;20033;-40
2022/11/26 05:26:34;;;;;;;12.35;4.15;;;3.90;99.90;;;;;;5066432;28;20245;-42
2022/11/26 05:29:00;;;;;;;6.88;3.58;;;3.90;99.90;;;;;;5056247;28;20386;-41
2022/11/26 05:31:27;;;;;;;11.57;4.03;;;3.80;99.90;;;;;;5064510;28;20063;-38
2022/11/26 05:33:52;;;;;;;11.05;3.45;;;3.80;99.90;;;;;;5050371;28;20049;-39
2022/11/26 05:36:18;;;;;;;12.18;4.75;;;3.80;99.90;;;;;;5064056;28;20045;-39
2022/11/26 05:38:44;;;;;;;10.25;4.80;;;3.70;99.90;;;;;;5055773;28;20040;-40
2022/11/26 05:41:09;;;;;;;12.98;4.93;;;3.70;99.90;;;;;;5056518;28;20040;-39
2022/11/26 05:43:35;;;;;;;8.82;4.68;;;3.70;99.90;;;;;;5067184;28;20044;-39
2022/11/26 05:46:08;;;;;;;8.90;3.47;;;3.60;99.90;;;;;;5062478;28;20028;-39
2022/11/26 05:48:34;;;;;;;17.92;5.30;;;3.60;99.90;;;;;;5067154;28;20120;-40
2022/11/26 05:51:00;;;;;;;16.25;4.80;;;3.60;99.90;;;;;;5063885;28;20526;-39
2022/11/26 05:53:27;;;;;;;14.93;4.65;;;3.60;99.90;;;;;;5061666;28;20105;-37
2022/11/26 05:55:53;;;;;;;12.52;5.05;;;3.60;99.90;;;;;;5058877;28;20494;-40
2022/11/26 05:58:18;;;;;;;9.63;4.97;;;3.60;99.90;;;;;;5064724;28;20051;-42
2022/11/26 06:00:44;;;;;;;8.98;4.20;;;3.50;99.90;;;;;;5060432;28;20045;-38
2022/11/26 06:03:10;;;;;;;17.65;5.20;;;3.50;99.90;;;;;;5065128;28;20040;-41
2022/11/26 06:05:35;;;;;;;14.57;5.00;;;3.50;99.90;;;;;;5057813;28;20032;-40
2022/11/26 06:08:01;;;;;;;10.73;5.07;;;3.50;99.90;;;;;;5059606;28;20040;-39
2022/11/26 06:10:27;;;;;;;11.90;4.78;;;3.50;99.90;;;;;;5066048;28;20037;-42
2022/11/26 06:12:52;;;;;;;11.18;5.38;;;3.50;99.90;;;;;;5068843;28;20074;-38
2022/11/26 06:15:18;;;;;;;13.82;4.43;;;3.50;99.90;;;;;;5067905;28;20089;-39
2022/11/26 06:17:44;;;;;;;10.95;4.75;;;3.50;99.90;;;;;;5068781;28;20438;-39
2022/11/26 06:20:10;;;;;;;17.25;5.20;;;3.50;99.90;;;;;;5071238;28;20552;-39
2022/11/26 06:22:41;;;;;;;11.65;4.55;;;3.50;99.90;;;;;;5065228;28;20039;-40
2022/11/26 06:25:08;;;;;;;12.02;4.50;;;3.50;99.90;;;;;;5068163;28;20347;-40
2022/11/26 06:27:35;;;;;;;15.90;4.15;;;3.50;99.90;;;;;;5064644;28;20522;-38
2022/11/26 06:30:06;;;;;;;11.48;4.45;;;3.50;99.90;;;;;;5063302;28;20094;-38
2022/11/26 06:32:32;;;;;;;10.50;4.45;;;3.50;99.90;;;;;;5061203;28;20561;-38
2022/11/26 06:34:57;;;;;;;11.18;4.95;;;3.50;99.90;;;;;;5065049;28;20146;-39
2022/11/26 06:37:24;;;;;;;14.10;5.10;;;3.50;99.90;;;;;;5064939;28;20084;-39
2022/11/26 06:39:50;;;;;;;13.85;5.88;;;3.60;99.90;;;;;;5062645;28;20047;-39
2022/11/26 06:42:17;;;;;;;18.30;5.20;;;3.60;99.90;;;;;;5064753;28;20576;-39
2022/11/26 06:44:43;;;;;;;9.73;5.25;;;3.60;99.90;;;;;;5066649;28;20118;-41
2022/11/26 06:47:12;;;;;;;13.77;4.57;;;3.60;99.90;;;;;;5063348;28;20491;-39
2022/11/26 06:49:38;;;;;;;11.90;4.75;;;3.60;99.90;;;;;;5063712;28;20124;-40
2022/11/26 06:52:04;;;;;;;11.82;5.10;;;3.60;99.90;;;;;;5061667;28;20132;-39
2022/11/26 06:54:30;;;;;;;9.48;4.18;;;3.60;99.90;;;;;;5066722;28;21376;-39
2022/11/26 06:56:55;;;;;;;16.52;6.38;;;3.60;99.90;;;;;;5073183;28;20055;-41
2022/11/26 06:59:21;;;;;;;15.13;5.50;;;3.60;99.90;;;;;;5065265;28;20506;-39
2022/11/26 07:01:47;;;;;;;11.82;5.53;;;3.60;99.90;;;;;;5062668;28;20139;-39
2022/11/26 07:04:13;;;;;;;12.40;5.25;;;3.60;99.90;;;;;;5054731;28;20517;-41
2022/11/26 07:06:39;;;;;;;16.27;5.68;;;3.60;99.90;;;;;;5064879;28;20486;-39
2022/11/26 07:09:08;;;;;;;19.40;6.50;;;3.60;99.90;;;;;;5065111;28;20054;-39
2022/11/26 07:11:34;;;;;;;16.48;5.28;;;3.60;99.90;;;;;;5060132;28;20395;-40
2022/11/26 07:14:00;;;;;;;14.18;5.22;;;3.60;99.90;;;;;;5059751;28;20079;-39
2022/11/26 07:16:27;;;;;;;16.08;5.38;;;3.70;99.90;;;;;;5058377;28;20120;-39
2022/11/26 07:18:54;;;;;;;16.13;5.32;;;3.70;99.90;;;;;;5070887;28;20427;-38
2022/11/26 07:21:21;;;;;;;12.05;5.43;;;3.70;99.90;;;;;;5058593;28;20068;-38
2022/11/26 07:23:47;;;;;;;12.38;5.82;;;3.70;99.90;;;;;;5069020;28;20115;-39
2022/11/26 07:26:14;;;;;;;25.25;6.40;;;3.80;99.90;;;;;;5059370;28;20059;-40
2022/11/26 07:28:40;;;;;;;15.50;5.57;;;3.80;99.90;;;;;;5063809;28;20070;-39
2022/11/26 07:31:11;;;;;;;15.82;6.00;;;3.90;99.90;;;;;;5056706;28;20041;-39
2022/11/26 07:33:37;;;;;;;15.55;5.40;;;3.90;99.90;;;;;;5064636;28;20053;-40
2022/11/26 07:36:05;;;;;;;15.63;5.20;;;3.90;99.90;;;;;;5058486;28;20068;-39
2022/11/26 07:38:31;;;;;;;9.65;4.57;;;3.90;99.90;;;;;;5060645;28;20122;-45
2022/11/26 07:41:05;;;;;;;16.02;5.93;;;3.90;99.90;;;;;;5063358;28;20052;-40
2022/11/26 07:43:34;;;;;;;12.80;4.90;;;3.80;99.90;;;;;;5066339;28;20048;-39
2022/11/26 07:46:04;;;;;;;11.07;4.55;;;3.80;99.90;;;;;;5062956;28;20044;-40
2022/11/26 07:48:31;;;;;;;18.77;5.70;;;3.80;99.90;;;;;;5071774;28;20520;-47
2022/11/26 07:50:57;;;;;;;16.08;5.25;;;3.80;99.90;;;;;;5062289;28;20150;-39
2022/11/26 07:53:23;;;;;;;10.02;5.05;;;3.80;99.90;;;;;;5057141;28;20033;-40
2022/11/26 07:55:49;;;;;;;18.80;6.00;;;3.90;99.90;;;;;;5056139;28;20093;-41
2022/11/26 07:58:14;;;;;;;20.08;5.80;;;3.90;99.90;;;;;;5059636;28;20052;-41
2022/11/26 08:00:40;;;;;;;14.75;5.55;;;3.90;99.90;;;;;;5054532;28;20033;-40
2022/11/26 08:03:05;;;;;;;17.67;6.45;;;4.00;99.90;;;;;;5054410;28;20464;-40
2022/11/26 08:05:31;;;;;;;22.75;7.07;;;4.00;99.90;;;;;;5058809;28;20436;-40
2022/11/26 08:07:57;;;;;;;20.15;5.70;;;4.10;99.90;;;;;;5060394;28;20066;-39
2022/11/26 08:10:22;;;;;;;19.65;7.03;;;4.20;99.90;;;;;;5064141;28;20036;-39
2022/11/26 08:12:48;;;;;;;18.02;6.93;;;4.20;99.90;;;;;;5059665;28;20032;-41
2022/11/26 08:15:14;;;;;;;12.50;5.97;;;4.30;99.90;;;;;;5058728;28;20041;-39
2022/11/26 08:17:39;;;;;;;15.65;6.25;;;4.30;99.90;;;;;;5067916;28;20044;-38
2022/11/26 08:20:06;;;;;;;16.75;5.93;;;4.40;99.90;;;;;;5064657;28;20047;-39
2022/11/26 08:22:31;;;;;;;18.52;6.13;;;4.40;99.90;;;;;;5067602;28;20574;-52
2022/11/26 08:24:57;;;;;;;17.27;6.93;;;4.50;99.90;;;;;;5064640;28;20044;-38
2022/11/26 08:27:23;;;;;;;19.27;6.93;;;4.60;99.90;;;;;;5064880;28;20405;-39
2022/11/26 08:29:48;;;;;;;23.58;7.32;;;4.60;99.90;;;;;;5067129;28;20056;-39
2022/11/26 08:32:14;;;;;;;20.88;7.75;;;4.60;99.90;;;;;;5049101;28;20037;-38
2022/11/26 08:34:40;;;;;;;18.27;6.65;;;4.70;99.90;;;;;;5063652;28;20155;-39
2022/11/26 08:37:05;;;;;;;20.38;6.53;;;4.70;99.90;;;;;;5060712;28;20116;-38
2022/11/26 08:39:31;;;;;;;19.42;7.70;;;4.70;99.90;;;;;;5053294;28;20116;-39
2022/11/26 08:41:56;;;;;;;19.25;6.32;;;4.70;99.90;;;;;;5055790;28;20509;-40
2022/11/26 08:44:22;;;;;;;16.92;6.32;;;4.70;99.90;;;;;;5063636;28;20033;-39
2022/11/26 08:46:48;;;;;;;19.73;7.20;;;4.80;99.90;;;;;;5066263;28;20067;-38
2022/11/26 08:49:15;;;;;;;23.65;7.70;;;4.80;99.90;;;;;;5065862;28;20032;-38
2022/11/26 08:51:42;;;;;;;18.20;7.10;;;4.90;99.90;;;;;;5062973;28;20062;-38
2022/11/26 08:54:08;;;;;;;17.83;7.20;;;4.90;99.90;;;;;;5064644;28;20040;-40
2022/11/26 08:56:34;;;;;;;18.67;6.93;;;4.90;99.90;;;;;;5064682;28;20055;-39
2022/11/26 08:58:59;;;;;;;23.25;8.38;;;5.00;99.90;;;;;;5059966;28;20398;-39
2022/11/26 09:01:28;;;;;;;20.25;7.07;;;5.00;99.90;;;;;;5062202;28;20081;-38
2022/11/26 09:03:56;;;;;;;18.83;9.05;;;5.10;99.90;;;;;;5057292;28;20033;-38
2022/11/26 09:06:24;;;;;;;23.15;8.07;;;5.10;99.90;;;;;;5053687;28;20044;-39
2022/11/26 09:11:37;;;;;;;18.92;7.70;;;5.30;99.90;;;;;;5053162;28;20041;-39
2022/11/26 09:14:03;;;;;;;21.85;7.93;;;5.30;99.90;;;;;;5058650;28;20498;-39
2022/11/26 09:16:29;;;;;;;22.40;8.48;;;5.40;99.90;;;;;;5056879;28;20047;-38
2022/11/26 09:18:57;;;;;;;21.92;8.20;;;5.50;99.90;;;;;;5054948;28;20044;-39
2022/11/26 09:21:23;;;;;;;22.23;8.45;;;5.50;99.90;;;;;;5057760;28;20037;-39
2022/11/26 09:23:49;;;;;;;20.70;7.90;;;5.60;99.90;;;;;;5054661;28;20763;-39
2022/11/26 09:26:15;;;;;;;22.02;8.40;;;5.60;99.90;;;;;;5058885;28;20053;-39
2022/11/26 09:28:40;;;;;;;23.52;8.68;;;5.70;99.90;;;;;;5059775;28;20402;-42
2022/11/26 09:31:06;;;;;;;22.17;9.32;;;5.80;99.90;;;;;;5058675;28;20029;-47
2022/11/26 09:33:32;;;;;;;21.33;8.60;;;5.80;99.90;;;;;;5062312;28;20131;-47
2022/11/26 09:36:13;;;;;;;21.15;8.82;;;5.90;99.90;;;;;;5057246;28;20040;-44
2022/11/26 09:38:39;;;;;;;21.83;9.38;;;5.90;99.90;;;;;;5071160;28;20047;-47
2022/11/26 09:41:13;;;;;;;22.25;8.65;;;6.00;99.90;;;;;;5054431;28;20041;-47
2022/11/26 09:43:50;;;;;;;20.65;9.10;;;6.10;99.90;;;;;;5066426;28;20094;-47
2022/11/26 09:46:19;;;;;;;21.30;9.32;;;6.10;99.90;;;;;;5066199;28;20044;-47
2022/11/26 09:48:45;;;;;;;22.85;8.43;;;6.10;99.90;;;;;;5058295;28;20232;-49
2022/11/26 09:51:13;;;;;;;22.42;9.10;;;6.20;99.90;;;;;;5060887;28;20116;-47
2022/11/26 09:53:45;;;;;;;25.58;9.23;;;6.20;99.90;;;;;;5058055;28;20044;-42
2022/11/26 09:56:22;;;;;;;21.13;9.40;;;6.20;99.90;;;;;;5064580;28;20052;-44
2022/11/26 09:58:56;;;;;;;20.55;8.20;;;6.30;99.90;;;;;;5061634;28;20099;-44
2022/11/26 10:01:23;;;;;;;20.67;10.10;;;6.40;99.90;;;;;;5066907;28;20040;-40
2022/11/26 10:03:50;;;;;;;23.38;7.88;;;6.40;99.90;;;;;;5060991;28;20044;-43
2022/11/26 10:06:41;;;;;;;17.85;7.70;;;6.40;99.90;;;;;;5061314;28;20132;-42
2022/11/26 10:09:28;;;;;;;21.15;8.15;;;6.50;99.90;;;;;;5060514;28;20115;-46
2022/11/26 10:11:56;;;;;;;22.60;9.45;;;6.50;99.90;;;;;;5072588;28;20047;-42
2022/11/26 10:14:38;;;;;;;27.02;9.43;;;6.60;99.90;;;;;;5062535;28;20527;-44
2022/11/26 10:17:22;;;;;;;23.00;8.75;;;6.60;99.90;;;;;;5060791;28;20049;-43
2022/11/26 10:20:05;;;;;;;24.58;9.43;;;6.60;99.90;;;;;;5055031;28;20141;-45
2022/11/26 10:22:37;;;;;;;17.75;8.48;;;6.70;99.90;;;;;;5060394;28;20517;-43
2022/11/26 10:25:12;;;;;;;25.38;9.75;;;6.70;99.90;;;;;;5063411;28;20041;-40
2022/11/26 10:27:38;;;;;;;22.58;9.35;;;6.80;99.90;;;;;;5060286;28;20502;-42
2022/11/26 10:30:22;;;;;;;22.67;9.88;;;6.80;99.90;;;;;;5062292;28;20051;-42
2022/11/26 10:32:50;;;;;;;21.35;8.45;;;6.90;99.90;;;;;;5063811;28;20406;-43
2022/11/26 10:35:26;;;;;;;21.67;8.85;;;6.90;99.90;;;;;;5066031;28;20530;-43
2022/11/26 10:37:56;;;;;;;24.42;9.15;;;6.90;99.90;;;;;;5057675;28;20084;-42
2022/11/26 10:40:30;;;;;;;28.58;9.63;;;6.90;99.90;;;;;;5057950;28;20076;-43
2022/11/26 10:43:11;;;;;;;31.55;10.55;;;7.00;99.90;;;;;;5055612;28;20044;-46
2022/11/26 10:45:41;;;;;;;20.75;9.13;;;7.00;99.90;;;;;;5061156;28;20463;-41
2022/11/26 10:48:21;;;;;;;21.30;9.15;;;7.10;99.90;;;;;;5059669;28;20043;-40
2022/11/26 10:51:09;;;;;;;24.70;8.98;;;7.10;99.90;;;;;;5060989;28;20044;-42
2022/11/26 10:53:53;;;;;;;32.95;9.85;;;7.20;99.90;;;;;;5062923;28;20074;-42
2022/11/26 10:56:22;;;;;;;27.75;8.35;;;7.20;99.90;;;;;;5059695;28;20036;-42
2022/11/26 10:58:51;;;;;;;22.02;8.98;;;7.20;99.90;;;;;;5058034;28;20591;-43
2022/11/26 11:01:17;;;;;;;24.20;8.43;;;7.30;99.90;;;;;;5064397;28;20123;-41
2022/11/26 11:03:52;;;;;;;18.58;9.18;;;7.30;99.90;;;;;;5058085;28;20067;-49
2022/11/26 11:06:17;;;;;;;22.83;9.15;;;7.30;99.90;;;;;;5056460;28;20607;-45
2022/11/26 11:08:47;;;;;;;27.67;9.52;;;7.30;99.90;;;;;;5063883;28;20074;-41
2022/11/26 11:11:25;;;;;;;19.88;8.50;;;7.40;99.90;;;;;;5058974;28;20100;-42
2022/11/26 11:13:52;;;;;;;29.02;9.63;;;7.50;99.90;;;;;;5056468;28;20046;-41
2022/11/26 11:16:30;;;;;;;17.77;8.75;;;7.50;99.90;;;;;;5057781;28;20058;-40
2022/11/26 11:18:59;;;;;;;22.13;8.25;;;7.60;99.90;;;;;;5062208;28;20409;-42
2022/11/26 11:21:33;;;;;;;24.50;9.65;;;7.70;99.90;;;;;;5061247;28;20043;-38
2022/11/26 11:24:26;;;;;;;18.05;8.02;;;7.70;99.90;;;;;;5062286;28;20605;-38
2022/11/26 11:26:55;;;;;;;25.70;8.02;;;7.80;99.90;;;;;;5060454;28;20656;-38
2022/11/26 11:29:28;;;;;;;25.10;8.10;;;7.80;99.90;;;;;;5052867;28;20059;-38
2022/11/26 11:32:00;;;;;;;19.38;8.23;;;7.90;99.90;;;;;;5057065;28;20049;-39
2022/11/26 11:34:41;;;;;;;17.70;8.18;;;7.90;99.90;;;;;;5058284;28;20053;-41
2022/11/26 11:37:20;;;;;;;21.52;9.00;;;8.00;99.90;;;;;;5056359;28;20099;-38
2022/11/26 11:40:03;;;;;;;16.35;8.20;;;8.10;99.90;;;;;;5058808;28;20048;-38
2022/11/26 11:42:29;;;;;;;20.45;7.50;;;8.10;99.90;;;;;;5061736;28;20102;-38
2022/11/26 11:44:57;;;;;;;22.50;7.78;;;8.20;99.90;;;;;;5055486;28;20048;-40
2022/11/26 11:47:31;;;;;;;19.08;8.40;;;8.10;99.90;;;;;;5051723;28;20032;-39
2022/11/26 11:50:32;;;;;;;23.77;7.65;;;8.20;99.90;;;;;;5065949;28;20405;-38
2022/11/26 11:53:05;;;;;;;20.77;7.93;;;8.20;99.90;;;;;;5062774;28;20078;-38
2022/11/26 11:55:48;;;;;;;21.92;9.32;;;8.20;99.90;;;;;;5057363;28;20509;-39
2022/11/26 11:58:23;;;;;;;21.90;8.60;;;8.10;99.90;;;;;;5060959;28;20044;-38
2022/11/26 12:01:11;;;;;;;21.02;8.77;;;8.20;99.90;;;;;;5053562;28;20048;-39
2022/11/26 12:04:07;;;;;;;21.00;8.30;;;8.20;99.90;;;;;;5052250;28;20489;-39
2022/11/26 12:06:59;;;;;;;19.02;8.15;;;8.20;99.90;;;;;;5060390;28;20052;-39
2022/11/26 12:09:31;;;;;;;21.30;8.38;;;8.20;99.90;;;;;;5050247;28;20045;-41
2022/11/26 12:11:58;;;;;;;;;;;8.20;99.90;;;;;;5051838;28;20037;-38
2022/11/26 12:14:46;;;;;;;19.95;7.43;;;8.20;99.90;;;;;;5058762;28;19999;-40
2022/11/26 12:17:30;;;;;;;19.80;7.50;;;8.30;99.90;;;;;;5060838;28;20029;-37
2022/11/26 12:20:04;;;;;;;19.58;7.47;;;8.30;99.90;;;;;;5056971;28;20078;-38
2022/11/26 12:22:40;;;;;;;19.63;7.45;;;8.40;99.90;;;;;;5057486;28;20047;-37
2022/11/26 12:25:36;;;;;;;24.85;7.78;;;8.50;99.90;;;;;;5056308;28;20043;-40
2022/11/26 12:28:24;;;;;;;20.25;8.73;;;8.60;99.90;;;;;;5060660;28;20134;-39
2022/11/26 12:30:55;;;;;;;23.70;8.15;;;8.80;99.90;;;;;;5058909;28;20043;-38
2022/11/26 12:33:36;;;;;;;19.00;7.75;;;9.10;99.90;;;;;;5064994;28;20049;-39
2022/11/26 12:36:15;;;;;;;16.75;6.95;;;9.50;99.90;;;;;;5063081;28;20044;-38
2022/11/26 12:39:30;;;;;;;18.65;7.57;;;9.80;99.90;;;;;;5054993;28;20453;-38
2022/11/26 12:42:01;;;;;;;20.15;7.55;;;10.20;99.90;;;;;;5047898;28;20086;-38
2022/11/26 12:44:36;;;;;;;15.80;6.70;;;10.40;99.90;;;;;;5059498;28;20087;-38
2022/11/26 12:47:25;;;;;;;20.52;6.78;;;10.60;99.90;;;;;;5059069;28;20083;-40
2022/11/26 12:50:09;;;;;;;17.05;6.20;;;10.60;99.90;;;;;;5060248;28;20068;-38
2022/11/26 12:53:03;;;;;;;19.90;8.25;;;10.60;99.90;;;;;;5056567;28;20040;-39
2022/11/26 12:55:40;;;;;;;15.23;6.32;;;10.40;99.90;;;;;;5056153;28;20517;-38
2022/11/26 12:58:19;;;;;;;16.33;6.18;;;10.30;99.90;;;;;;5062087;28;20044;-39
2022/11/26 13:00:48;;;;;;;14.35;6.40;;;10.20;99.90;;;;;;5062928;28;20067;-38
2022/11/26 13:03:16;;;;;;;15.80;6.57;;;10.00;99.90;;;;;;5059164;28;20044;-38
2022/11/26 13:05:45;;;;;;;17.52;6.68;;;10.00;99.90;;;;;;5056814;28;20053;-38